Time;durP1;ratioP1;P1;durP2;ratioP2;P2;SDS_P1;SDS_P2;PMS_P1;PMS_P2;Temp;Humidity;BMP_temperature;BMP_pressure;BME280_temperature;BME280_humidity;BME280_pressure;Samples;Min_cycle;Max_cycle;Signal;HPM_P1;HPM_P2
2023/01/21 00:01:06;;;;;;;17.98;9.98;;;;;;;2.90;100.00;100078.53;4977813;28;20035;-91
2023/01/21 00:03:54;;;;;;;19.30;9.95;;;;;;;2.57;100.00;100073.41;4978772;28;20472;-92
2023/01/21 00:06:20;;;;;;;18.10;10.05;;;;;;;2.35;100.00;100071.66;5396637;23;20065;-88
2023/01/21 00:09:08;;;;;;;20.48;11.18;;;;;;;2.25;100.00;100060.25;5008792;28;20065;-90
2023/01/21 00:11:44;;;;;;;20.27;10.67;;;;;;;2.19;100.00;100075.59;5001235;28;20053;-90
2023/01/21 00:14:11;;;;;;;18.75;10.07;;;;;;;2.33;100.00;100068.31;5008666;28;20332;-91
2023/01/21 00:19:18;;;;;;;17.90;10.85;;;;;;;2.32;100.00;100060.63;4846494;26;20051;-88
2023/01/21 00:21:44;;;;;;;22.50;10.95;;;;;;;2.30;100.00;100055.50;4978866;28;20045;-90
2023/01/21 00:24:10;;;;;;;17.45;10.30;;;;;;;2.48;100.00;100053.22;4979858;28;20047;-91
2023/01/21 00:26:35;;;;;;;19.30;10.52;;;;;;;2.50;100.00;100053.91;4981214;28;20106;-89
2023/01/21 00:29:01;;;;;;;20.40;11.07;;;;;;;2.71;100.00;100054.81;4991474;28;20065;-91
2023/01/21 00:31:27;;;;;;;23.50;12.85;;;;;;;2.63;100.00;100054.59;4975706;28;20536;-88
2023/01/21 00:33:52;;;;;;;19.92;11.48;;;;;;;2.72;100.00;100048.59;4991045;28;20039;-87
2023/01/21 00:36:23;;;;;;;23.38;12.90;;;;;;;2.73;100.00;100052.06;4992498;28;20145;-89
2023/01/21 00:38:49;;;;;;;26.85;12.63;;;;;;;2.67;100.00;100050.78;4977451;28;20038;-88
2023/01/21 00:41:16;;;;;;;21.17;11.60;;;;;;;2.80;100.00;100040.97;4976951;28;20480;-91
2023/01/21 00:43:42;;;;;;;23.13;12.70;;;;;;;2.77;100.00;100048.25;4991934;28;20369;-89
2023/01/21 00:46:08;;;;;;;23.25;12.32;;;;;;;2.75;100.00;100050.16;4975635;28;20065;-89
2023/01/21 00:48:37;;;;;;;20.90;12.27;;;;;;;2.72;100.00;100035.53;4976937;28;20038;-90
2023/01/21 00:51:02;;;;;;;23.65;13.40;;;;;;;2.52;100.00;100037.13;4992445;28;20042;-91
2023/01/21 00:53:32;;;;;;;25.45;13.68;;;;;;;2.44;100.00;100036.94;4976850;28;20049;-88
2023/01/21 00:56:03;;;;;;;24.45;13.65;;;;;;;2.41;100.00;100031.94;4976071;28;20432;-91
2023/01/21 00:58:29;;;;;;;17.20;9.93;;;;;;;2.42;100.00;100033.59;4976404;28;20059;-88
2023/01/21 01:01:05;;;;;;;25.25;14.20;;;;;;;2.26;100.00;100029.69;4977130;28;20680;-88
2023/01/21 01:03:32;;;;;;;24.65;12.57;;;;;;;2.17;100.00;100031.28;4985124;28;20043;-89
2023/01/21 01:06:10;;;;;;;28.63;14.93;;;;;;;2.18;100.00;100032.09;5011333;28;20428;-88
2023/01/21 01:08:35;;;;;;;25.42;13.43;;;;;;;2.15;100.00;100033.19;4986245;28;20039;-90
2023/01/21 01:11:01;;;;;;;25.00;14.30;;;;;;;2.26;100.00;100027.91;4979249;28;20034;-89
2023/01/21 01:13:27;;;;;;;26.70;14.57;;;;;;;2.20;100.00;100028.41;4978153;28;20039;-89
2023/01/21 01:15:56;;;;;;;30.00;14.98;;;;;;;2.12;100.00;100024.75;4977333;28;20043;-89
2023/01/21 01:18:26;;;;;;;29.13;14.68;;;;;;;2.14;100.00;100023.66;4977463;28;20034;-88
2023/01/21 01:20:54;;;;;;;27.38;15.60;;;;;;;2.07;100.00;100015.47;4959986;28;20039;-89
2023/01/21 01:23:20;;;;;;;28.23;15.35;;;;;;;2.18;100.00;100019.88;4977338;28;20118;-89
2023/01/21 01:26:01;;;;;;;28.20;15.50;;;;;;;2.29;100.00;100019.00;4977404;28;20067;-89
2023/01/21 01:28:27;;;;;;;25.50;15.05;;;;;;;2.35;100.00;100021.97;4979052;28;20035;-89
2023/01/21 01:30:53;;;;;;;26.45;15.13;;;;;;;2.42;100.00;100019.72;4980687;28;20031;-90
2023/01/21 01:33:18;;;;;;;28.92;15.57;;;;;;;2.39;100.00;100009.47;4981123;28;20125;-89
2023/01/21 01:35:48;;;;;;;28.55;15.20;;;;;;;2.33;100.00;100005.56;4995495;28;20082;-89
2023/01/21 01:38:21;;;;;;;28.95;15.45;;;;;;;2.21;100.00;100005.72;4980515;28;20090;-89
2023/01/21 01:40:48;;;;;;;30.23;15.80;;;;;;;2.10;100.00;99993.50;4980302;28;20181;-88
2023/01/21 01:43:17;;;;;;;25.05;15.18;;;;;;;2.13;100.00;99998.47;4980594;28;20043;-90
2023/01/21 01:45:42;;;;;;;29.15;15.25;;;;;;;1.99;100.00;99993.50;4994524;28;20103;-90
2023/01/21 01:48:12;;;;;;;29.50;15.95;;;;;;;1.98;100.00;99995.31;4979376;28;20066;-88
2023/01/21 01:50:38;;;;;;;28.27;16.10;;;;;;;1.95;100.00;99997.31;4979775;28;20043;-89
2023/01/21 01:53:04;;;;;;;30.75;16.13;;;;;;;1.91;100.00;99993.28;4980708;28;20035;-87
2023/01/21 01:55:34;;;;;;;29.40;15.73;;;;;;;1.86;100.00;99990.19;4980153;28;20117;-89
2023/01/21 01:58:01;;;;;;;30.25;15.50;;;;;;;1.90;100.00;99992.44;4981212;28;20046;-90
2023/01/21 02:00:27;;;;;;;32.05;16.80;;;;;;;1.89;100.00;99979.53;4981933;28;20073;-89
2023/01/21 02:05:41;;;;;;;31.15;16.42;;;;;;;1.85;100.00;99972.88;4983816;28;20045;-90
2023/01/21 02:08:10;;;;;;;32.88;16.10;;;;;;;1.89;100.00;99972.50;4981576;28;20038;-89
2023/01/21 02:10:36;;;;;;;26.95;15.82;;;;;;;1.93;100.00;99960.84;4982075;28;20455;-89
2023/01/21 02:13:03;;;;;;;30.73;15.95;;;;;;;2.18;100.00;99967.59;4987516;28;20404;-90
2023/01/21 02:15:41;;;;;;;28.02;15.98;;;;;;;2.08;100.00;99961.44;4980102;28;20045;-89
2023/01/21 02:18:19;;;;;;;27.30;15.55;;;;;;;1.96;100.00;99958.00;4980823;28;20049;-90
2023/01/21 02:21:17;;;;;;;27.58;15.75;;;;;;;1.89;100.00;99953.41;4981129;28;20131;-91
2023/01/21 02:24:12;;;;;;;28.00;15.65;;;;;;;1.90;100.00;99947.19;4978399;28;20049;-89
2023/01/21 02:26:56;;;;;;;26.70;14.77;;;;;;;2.05;100.00;99948.63;4930044;28;20592;-92
2023/01/21 02:29:44;;;;;;;27.92;15.43;;;;;;;1.86;100.00;99943.16;4979417;28;20054;-90
2023/01/21 02:32:39;;;;;;;30.60;16.08;;;;;;;1.81;100.00;99933.09;4979649;28;20039;-89
2023/01/21 02:35:08;;;;;;;29.10;16.27;;;;;;;1.67;100.00;99928.13;4919996;29;20103;-88
2023/01/21 02:37:56;;;;;;;28.05;15.23;;;;;;;1.55;100.00;99929.91;4920041;29;20044;-87
2023/01/21 02:40:30;;;;;;;27.63;15.32;;;;;;;1.62;100.00;99925.03;4919241;29;20419;-90
2023/01/21 02:43:23;;;;;;;27.15;15.45;;;;;;;1.66;100.00;99925.63;4919651;29;20480;-89
2023/01/21 02:45:55;;;;;;;33.75;16.08;;;;;;;1.83;100.00;99925.94;4935766;28;20046;-89
2023/01/21 02:48:33;;;;;;;20.90;11.18;;;;;;;1.85;100.00;99916.22;4994270;28;20118;-89
2023/01/21 02:51:00;;;;;;;29.08;15.00;;;;;;;1.73;100.00;99921.56;4978923;28;20041;-89
2023/01/21 02:53:29;;;;;;;27.92;14.95;;;;;;;1.66;100.00;99917.81;4978373;28;20035;-88
2023/01/21 02:55:58;;;;;;;27.73;14.45;;;;;;;1.63;100.00;99920.63;4978388;28;20039;-89
2023/01/21 02:58:35;;;;;;;23.95;13.70;;;;;;;1.57;100.00;99911.50;4979588;28;20050;-88
2023/01/21 03:01:33;;;;;;;26.92;14.63;;;;;;;1.71;100.00;99908.66;4994424;28;20073;-89
2023/01/21 03:03:59;;;;;;;27.75;15.63;;;;;;;1.64;100.00;99907.47;4974404;28;20053;-89
2023/01/21 03:06:51;;;;;;;28.00;15.27;;;;;;;1.52;100.00;99904.00;4993899;28;20102;-91
2023/01/21 03:09:23;;;;;;;23.00;14.40;;;;;;;1.53;100.00;99903.06;5000749;28;20055;-89
2023/01/21 03:12:07;;;;;;;26.58;14.85;;;;;;;1.52;100.00;99896.19;4981612;28;20047;-89
2023/01/21 03:17:41;;;;;;;28.45;14.50;;;;;;;1.95;100.00;99893.66;4980680;28;20125;-88
2023/01/21 03:23:40;;;;;;;23.88;13.55;;;;;;;1.68;100.00;99881.94;4997400;28;19937;-89
2023/01/21 03:26:09;;;;;;;26.20;13.63;;;;;;;1.64;100.00;99885.72;4999434;28;20033;-88
2023/01/21 03:28:40;;;;;;;27.00;14.40;;;;;;;1.68;100.00;99882.78;4999826;28;20033;-88
2023/01/21 03:31:20;;;;;;;29.10;13.90;;;;;;;1.53;100.00;99884.78;4996684;28;20078;-90
2023/01/21 03:33:49;;;;;;;24.60;13.75;;;;;;;1.62;100.00;99888.47;4978965;28;20046;-90
2023/01/21 03:36:30;;;;;;;26.42;13.57;;;;;;;1.82;100.00;99877.28;4978998;28;20062;-90
2023/01/21 03:38:58;;;;;;;18.67;10.65;;;;;;;1.96;100.00;99869.16;4979057;28;20039;-88
2023/01/21 03:41:30;;;;;;;26.98;14.35;;;;;;;2.09;100.00;99867.19;4993556;28;20082;-90
2023/01/21 03:43:57;;;;;;;25.67;14.07;;;;;;;2.27;100.00;99875.34;4978411;28;20384;-90
2023/01/21 03:46:59;;;;;;;23.33;13.23;;;;;;;2.18;100.00;99875.25;4978808;28;20078;-87
2023/01/21 03:49:33;;;;;;;27.30;14.10;;;;;;;2.25;100.00;99872.03;4996243;28;20400;-89
2023/01/21 03:52:02;;;;;;;23.00;12.88;;;;;;;2.11;100.00;99869.72;4996083;28;20051;-88
2023/01/21 03:54:28;;;;;;;28.58;13.55;;;;;;;1.88;100.00;99862.91;4980746;28;20035;-89
2023/01/21 03:56:54;;;;;;;26.08;14.13;;;;;;;1.82;100.00;99864.22;4977822;28;20429;-90
2023/01/21 03:59:19;;;;;;;35.28;11.80;;;;;;;1.71;100.00;99866.00;4993489;28;20129;-88
2023/01/21 04:01:45;;;;;;;26.83;13.55;;;;;;;1.67;100.00;99859.38;4977785;28;20118;-88
2023/01/21 04:04:11;;;;;;;24.83;14.48;;;;;;;1.56;100.00;99863.66;4978816;28;20415;-90
2023/01/21 04:06:36;;;;;;;24.38;13.25;;;;;;;1.59;100.00;99861.78;4977822;28;20503;-90
2023/01/21 04:09:06;;;;;;;24.10;13.10;;;;;;;1.76;100.00;99853.41;4993303;28;20035;-89
2023/01/21 04:11:32;;;;;;;23.17;12.77;;;;;;;1.87;100.00;99858.63;4977465;28;20111;-91
2023/01/21 04:13:58;;;;;;;23.10;13.43;;;;;;;1.86;100.00;99854.31;4978851;28;20412;-90
2023/01/21 04:16:24;;;;;;;25.02;13.10;;;;;;;1.83;100.00;99851.97;4992349;28;20078;-90
2023/01/21 04:18:49;;;;;;;23.58;12.63;;;;;;;1.57;100.00;99856.66;4977004;28;20042;-88
2023/01/21 04:21:15;;;;;;;22.90;13.13;;;;;;;1.62;100.00;99843.25;4977611;28;20045;-90
2023/01/21 04:23:40;;;;;;;25.85;13.00;;;;;;;1.55;100.00;99848.97;4978384;28;20039;-91
2023/01/21 04:26:06;;;;;;;25.45;12.98;;;;;;;1.72;100.00;99852.00;4979000;28;20058;-89
2023/01/21 04:28:35;;;;;;;25.52;12.90;;;;;;;2.02;100.00;99854.78;4977290;28;20035;-90
2023/01/21 04:31:01;;;;;;;22.90;12.35;;;;;;;2.03;100.00;99852.03;4979167;28;20480;-89
2023/01/21 04:33:27;;;;;;;20.90;11.75;;;;;;;1.98;100.00;99853.38;4978291;28;20039;-90
2023/01/21 04:35:59;;;;;;;25.48;12.98;;;;;;;1.98;100.00;99843.75;4977569;28;20061;-90
2023/01/21 04:38:26;;;;;;;24.35;11.95;;;;;;;2.11;100.00;99851.41;4977540;28;20066;-88
2023/01/21 04:40:54;;;;;;;22.40;11.98;;;;;;;2.20;100.00;99840.19;4978295;28;20375;-90
2023/01/21 04:43:22;;;;;;;22.02;11.05;;;;;;;2.15;100.00;99838.94;4991852;28;20070;-87
2023/01/21 04:45:48;;;;;;;24.05;10.70;;;;;;;2.01;100.00;99853.13;4977521;28;20023;-90
2023/01/21 04:48:15;;;;;;;21.75;10.80;;;;;;;2.05;100.00;99849.31;4978691;28;20039;-89
2023/01/21 04:50:41;;;;;;;18.77;10.57;;;;;;;1.89;100.00;99848.88;4978082;28;20385;-90
2023/01/21 04:53:07;;;;;;;20.17;11.23;;;;;;;1.96;100.00;99853.47;4978422;28;20119;-89
2023/01/21 04:55:33;;;;;;;18.35;10.20;;;;;;;2.01;100.00;99848.72;4978120;28;20026;-88
2023/01/21 04:57:58;;;;;;;19.52;10.30;;;;;;;1.69;100.00;99847.84;4976254;28;20085;-90
2023/01/21 05:00:24;;;;;;;19.45;10.73;;;;;;;1.56;100.00;99853.22;4978239;28;20082;-89
2023/01/21 05:02:49;;;;;;;20.98;10.25;;;;;;;1.45;100.00;99850.63;4979318;28;20117;-88
2023/01/21 05:05:15;;;;;;;21.02;10.52;;;;;;;1.47;100.00;99856.56;4981481;28;20027;-90
2023/01/21 05:07:43;;;;;;;19.20;9.88;;;;;;;1.39;100.00;99853.72;4981787;28;20035;-90
2023/01/21 05:10:14;;;;;;;22.85;10.73;;;;;;;1.42;100.00;99856.09;4983028;28;20034;-90
2023/01/21 05:12:40;;;;;;;18.17;9.57;;;;;;;1.36;100.00;99856.56;4982279;28;20062;-89
2023/01/21 05:15:06;;;;;;;18.48;10.35;;;;;;;1.26;100.00;99860.84;5068455;23;20089;-87
2023/01/21 05:17:31;;;;;;;17.65;10.23;;;;;;;1.21;100.00;99851.72;5001890;28;20439;-86
2023/01/21 05:19:57;;;;;;;19.35;10.43;;;;;;;1.20;100.00;99857.88;5001325;28;20048;-89
2023/01/21 05:22:22;;;;;;;22.75;10.65;;;;;;;1.19;100.00;99851.84;5002874;28;20489;-90
2023/01/21 05:24:47;;;;;;;16.58;9.32;;;;;;;1.24;100.00;99867.13;5014581;28;20097;-87
2023/01/21 05:27:14;;;;;;;21.27;10.20;;;;;;;1.28;100.00;99869.41;5018547;28;20114;-88
2023/01/21 05:29:40;;;;;;;17.92;8.20;;;;;;;1.43;100.00;99864.75;5019790;28;20026;-90
2023/01/21 05:32:06;;;;;;;17.80;9.68;;;;;;;1.45;100.00;99870.69;5019784;28;20045;-90
2023/01/21 05:34:32;;;;;;;19.23;9.15;;;;;;;1.39;100.00;99869.38;5016841;28;20046;-89
2023/01/21 05:36:57;;;;;;;16.55;9.32;;;;;;;1.40;100.00;99868.44;4992491;28;20039;-91
2023/01/21 05:39:23;;;;;;;18.10;8.93;;;;;;;1.26;100.00;99867.88;4983407;28;20035;-88
2023/01/21 05:41:49;;;;;;;16.35;8.43;;;;;;;1.32;100.00;99875.22;4984997;28;20062;-89
2023/01/21 05:44:14;;;;;;;22.17;9.40;;;;;;;1.35;100.00;99867.13;4984443;28;20061;-92
2023/01/21 05:46:40;;;;;;;17.83;9.80;;;;;;;1.45;100.00;99871.53;4981024;28;20035;-89
2023/01/21 05:49:06;;;;;;;19.33;9.20;;;;;;;1.34;100.00;99865.47;4985195;28;20070;-90
2023/01/21 05:51:31;;;;;;;16.10;8.55;;;;;;;1.24;100.00;99867.97;4985894;28;20130;-90
2023/01/21 05:53:57;;;;;;;16.52;8.38;;;;;;;1.04;100.00;99863.44;4997934;28;20022;-90
2023/01/21 05:56:22;;;;;;;16.67;7.93;;;;;;;1.06;100.00;99861.56;4988179;28;20127;-88
2023/01/21 05:58:49;;;;;;;16.58;8.00;;;;;;;1.19;100.00;99858.84;4981933;28;20035;-88
2023/01/21 06:01:15;;;;;;;18.33;9.90;;;;;;;1.34;100.00;99858.47;4979322;28;20047;-90
2023/01/21 06:03:41;;;;;;;17.35;8.93;;;;;;;1.59;100.00;99865.22;4981539;28;20113;-88
2023/01/21 06:06:07;;;;;;;26.08;9.13;;;;;;;1.28;100.00;99871.16;4980321;28;20035;-89
2023/01/21 06:11:59;;;;;;;14.35;7.50;;;;;;;0.90;100.00;99869.72;4998611;28;20047;-86
2023/01/21 06:14:24;;;;;;;14.48;8.02;;;;;;;0.79;100.00;99866.28;5019902;23;20051;-83
2023/01/21 06:16:50;;;;;;;13.55;7.57;;;;;;;0.94;100.00;99872.94;4995045;28;20488;-80
2023/01/21 06:19:15;;;;;;;13.13;7.57;;;;;;;0.88;100.00;99876.00;4978729;28;20034;-85
2023/01/21 06:21:41;;;;;;;15.68;7.60;;;;;;;1.26;100.00;99879.09;4978654;28;20057;-85
2023/01/21 06:24:06;;;;;;;12.40;6.55;;;;;;;1.38;100.00;99878.19;5001343;28;20535;-86
2023/01/21 06:26:33;;;;;;;11.98;7.18;;;;;;;1.31;100.00;99879.59;4990487;28;20090;-82
2023/01/21 06:28:58;;;;;;;13.57;6.88;;;;;;;1.40;100.00;99880.66;4990573;28;20169;-85
2023/01/21 06:31:24;;;;;;;12.25;6.65;;;;;;;1.43;100.00;99876.03;4993893;28;20086;-85
2023/01/21 06:33:49;;;;;;;11.88;6.30;;;;;;;1.58;100.00;99884.44;5014554;28;20506;-87
2023/01/21 06:36:18;;;;;;;10.70;6.05;;;;;;;1.71;100.00;99881.69;4990472;28;20022;-88
2023/01/21 06:38:43;;;;;;;11.63;5.70;;;;;;;1.58;100.00;99886.22;4989843;28;20038;-89
2023/01/21 06:41:09;;;;;;;12.63;5.82;;;;;;;1.22;100.00;99889.91;5001904;28;20035;-86
2023/01/21 06:43:35;;;;;;;11.65;5.95;;;;;;;1.23;100.00;99887.19;4989012;28;20387;-86
2023/01/21 06:46:00;;;;;;;13.90;6.57;;;;;;;1.13;100.00;99891.44;4987699;28;20038;-86
2023/01/21 06:48:26;;;;;;;10.52;5.30;;;;;;;1.23;100.00;99892.41;4998560;28;20084;-89
2023/01/21 06:50:51;;;;;;;10.35;5.78;;;;;;;1.12;100.00;99894.19;5013646;28;20376;-87
2023/01/21 06:53:17;;;;;;;9.65;5.65;;;;;;;0.93;100.00;99897.34;4970725;28;20463;-87
2023/01/21 06:55:43;;;;;;;9.20;5.15;;;;;;;1.05;100.00;99888.59;4985948;28;20018;-88
2023/01/21 06:58:09;;;;;;;9.35;5.40;;;;;;;1.31;100.00;99899.66;4996509;28;20022;-86
2023/01/21 07:00:35;;;;;;;14.82;5.47;;;;;;;1.52;100.00;99903.22;4997288;28;20057;-88
2023/01/21 07:03:00;;;;;;;9.50;5.35;;;;;;;1.21;100.00;99899.53;4995584;28;20106;-87
2023/01/21 07:05:26;;;;;;;11.07;5.35;;;;;;;1.34;100.00;99900.25;5012664;28;21268;-84
2023/01/21 07:07:56;;;;;;;9.15;5.13;;;;;;;1.62;100.00;99905.94;5013018;28;20058;-88
2023/01/21 07:10:23;;;;;;;11.80;5.10;;;;;;;1.49;100.00;99901.66;4998114;28;20085;-88
2023/01/21 07:12:49;;;;;;;9.68;5.25;;;;;;;1.50;100.00;99905.09;5013313;28;20061;-86
2023/01/21 07:15:15;;;;;;;7.82;5.10;;;;;;;1.60;100.00;99910.41;5012219;28;20034;-86
2023/01/21 07:17:40;;;;;;;8.18;4.63;;;;;;;1.33;100.00;99914.22;4998333;28;20043;-85
2023/01/21 07:20:06;;;;;;;7.40;4.05;;;;;;;1.37;100.00;99914.81;4996972;28;20038;-88
2023/01/21 07:22:33;;;;;;;7.32;4.50;;;;;;;1.40;100.00;99911.97;4997430;28;20034;-89
2023/01/21 07:24:58;;;;;;;7.95;4.32;;;;;;;1.30;100.00;99914.47;5013554;28;20122;-86
2023/01/21 07:27:24;;;;;;;7.38;4.22;;;;;;;1.55;100.00;99914.25;4995854;28;20058;-88
2023/01/21 07:29:49;;;;;;;9.02;5.03;;;;;;;1.60;100.00;99918.25;4996348;28;20030;-88
2023/01/21 07:32:15;;;;;;;8.52;4.80;;;;;;;1.69;100.00;99920.97;4997882;28;20125;-88
2023/01/21 07:34:40;;;;;;;11.48;5.07;;;;;;;1.82;100.00;99915.63;5001914;28;20054;-89
2023/01/21 07:37:06;;;;;;;11.05;4.75;;;;;;;1.84;100.00;99919.78;4999829;28;20034;-90
2023/01/21 07:39:32;;;;;;;13.40;5.15;;;;;;;1.57;100.00;99924.56;5003487;28;20060;-90
2023/01/21 07:42:01;;;;;;;7.93;4.43;;;;;;;1.53;100.00;99929.19;5002500;28;20041;-88
2023/01/21 07:44:27;;;;;;;8.77;4.35;;;;;;;1.56;100.00;99928.94;5018396;28;20057;-88
2023/01/21 07:50:54;;;;;;;8.90;4.93;;;;;;;1.66;100.00;99933.47;5244609;23;20531;-91
2023/01/21 07:56:09;;;;;;;9.48;5.50;;;;;;;1.48;100.00;99933.94;4787095;23;20046;-88
2023/01/21 07:58:37;;;;;;;11.27;4.97;;;;;;;1.49;100.00;99940.00;5022789;28;20056;-88
2023/01/21 08:01:07;;;;;;;8.85;4.80;;;;;;;1.61;100.00;99939.03;5023647;28;20026;-88
2023/01/21 08:03:33;;;;;;;12.45;4.57;;;;;;;1.71;100.00;99944.38;5020316;28;20093;-89
2023/01/21 08:06:04;;;;;;;9.20;4.22;;;;;;;1.75;100.00;99945.81;5028229;28;20040;-90
2023/01/21 08:08:31;;;;;;;7.32;4.22;;;;;;;1.88;100.00;99949.94;5033962;28;20022;-91
2023/01/21 08:11:20;;;;;;;9.00;3.78;;;;;;;1.95;100.00;99952.91;5039243;28;20038;-91
2023/01/21 08:14:04;;;;;;;9.40;3.92;;;;;;;2.06;100.00;99960.69;5012524;28;20046;-89
2023/01/21 08:16:33;;;;;;;14.85;5.40;;;;;;;2.40;100.00;99954.44;5009907;28;20034;-87
2023/01/21 08:19:46;;;;;;;10.00;4.28;;;;;;;2.35;100.00;99953.16;5014353;28;20041;-91
2023/01/21 08:22:18;;;;;;;10.15;4.38;;;;;;;2.46;100.00;99955.72;5024562;28;20042;-89
2023/01/21 08:24:44;;;;;;;8.93;4.32;;;;;;;2.42;100.00;99959.56;5020229;28;20035;-89
2023/01/21 08:27:23;;;;;;;7.90;4.55;;;;;;;2.33;100.00;99962.91;5031950;23;20058;-88
2023/01/21 08:29:53;;;;;;;13.00;4.60;;;;;;;2.35;100.00;99961.84;5003986;28;20140;-89
2023/01/21 08:32:19;;;;;;;9.75;4.97;;;;;;;2.45;100.00;99960.13;4999949;28;20567;-90
2023/01/21 08:34:52;;;;;;;8.30;5.05;;;;;;;2.45;100.00;99973.19;4983075;28;20052;-91
2023/01/21 08:37:17;;;;;;;;;;;;;;;2.51;100.00;99964.88;5018547;28;20026;-91
2023/01/21 08:39:49;;;;;;;8.45;3.88;;;;;;;2.54;100.00;99971.63;4988035;28;19964;-89
2023/01/21 08:42:17;;;;;;;7.35;3.92;;;;;;;2.57;100.00;99974.84;5018123;28;20046;-86
2023/01/21 08:44:44;;;;;;;8.85;4.55;;;;;;;2.63;100.00;99980.50;4999512;28;20443;-90
2023/01/21 08:47:10;;;;;;;6.68;4.40;;;;;;;2.61;100.00;99980.66;5001362;28;20035;-89
2023/01/21 08:49:36;;;;;;;8.38;4.03;;;;;;;2.66;100.00;99985.50;5001510;28;20049;-89
2023/01/21 08:52:04;;;;;;;7.70;4.40;;;;;;;2.77;100.00;99988.06;5001804;28;20030;-89
2023/01/21 08:54:29;;;;;;;5.75;3.03;;;;;;;2.90;100.00;99986.09;5002231;28;20026;-87
2023/01/21 08:56:55;;;;;;;8.63;4.63;;;;;;;3.10;100.00;99995.75;5017510;28;20061;-88
2023/01/21 08:59:27;;;;;;;9.40;4.38;;;;;;;3.10;100.00;99986.13;5004457;28;20038;-87
2023/01/21 09:01:54;;;;;;;12.52;4.47;;;;;;;3.11;97.77;99992.19;5021543;28;20057;-88
2023/01/21 09:04:19;;;;;;;16.15;4.15;;;;;;;3.15;96.92;99988.34;5015674;28;20039;-88
2023/01/21 09:06:51;;;;;;;10.00;4.70;;;;;;;3.16;94.99;99994.41;5016334;28;20043;-89
2023/01/21 09:09:22;;;;;;;8.57;4.68;;;;;;;3.15;92.39;100000.63;5001738;28;20041;-89
2023/01/21 09:11:51;;;;;;;11.27;4.30;;;;;;;3.25;92.39;100004.94;5000802;28;20096;-89
2023/01/21 09:14:17;;;;;;;10.05;4.60;;;;;;;3.45;88.98;100011.97;5001030;28;20038;-88
2023/01/21 09:16:43;;;;;;;8.45;5.07;;;;;;;3.56;88.63;100014.50;5004978;28;20495;-88
2023/01/21 09:19:08;;;;;;;10.93;4.72;;;;;;;3.62;90.65;100011.38;5003505;28;20035;-87
2023/01/21 09:21:34;;;;;;;12.95;5.20;;;;;;;3.79;89.37;100015.16;5004736;28;20034;-89
2023/01/21 09:24:00;;;;;;;10.45;4.40;;;;;;;3.98;91.54;100017.03;5005669;28;20040;-87
2023/01/21 09:26:26;;;;;;;7.18;3.40;;;;;;;4.09;93.49;100017.78;5006142;28;20031;-88
2023/01/21 09:29:01;;;;;;;16.42;4.10;;;;;;;3.92;91.67;100020.19;5003750;28;20418;-89
2023/01/21 09:31:29;;;;;;;12.07;3.60;;;;;;;3.87;92.60;100019.75;5006046;28;20097;-89
2023/01/21 09:33:58;;;;;;;11.88;3.40;;;;;;;3.91;90.96;100021.16;5008107;28;20050;-88
2023/01/21 09:36:27;;;;;;;14.40;3.40;;;;;;;4.00;94.54;100023.81;4985468;28;20043;-90
2023/01/21 09:39:10;;;;;;;11.35;4.45;;;;;;;3.81;94.61;100030.78;5008628;28;20042;-90
2023/01/21 09:41:37;;;;;;;;;;;;;;;3.77;93.57;100032.00;5104599;23;20064;-87
2023/01/21 09:44:25;;;;;;;10.70;4.20;;;;;;;3.77;92.48;100026.75;5025241;28;19921;-87
2023/01/21 09:47:15;;;;;;;12.20;3.67;;;;;;;3.87;93.77;100027.63;5023947;28;20407;-89
2023/01/21 09:49:53;;;;;;;10.07;3.38;;;;;;;4.03;91.70;100035.81;5027780;28;20021;-87
2023/01/21 09:52:21;;;;;;;9.00;3.53;;;;;;;4.12;91.90;100029.78;5029877;28;20038;-85
2023/01/21 09:54:58;;;;;;;19.50;3.72;;;;;;;4.25;90.70;100026.91;5032078;28;20053;-87
2023/01/21 09:57:58;;;;;;;11.50;3.83;;;;;;;4.20;93.07;100029.97;5015320;28;20119;-87
2023/01/21 10:01:08;;;;;;;6.70;2.83;;;;;;;4.24;93.24;100023.50;5033077;28;20037;-87
2023/01/21 10:04:00;;;;;;;7.53;3.20;;;;;;;4.53;93.69;100027.00;4969129;29;20107;-88
2023/01/21 10:06:31;;;;;;;7.18;3.33;;;;;;;4.50;92.45;100024.66;4957197;29;20102;-87
2023/01/21 10:09:06;;;;;;;4.95;3.03;;;;;;;4.55;91.41;100022.44;4973739;29;20043;-87
2023/01/21 10:12:17;;;;;;;9.30;3.45;;;;;;;4.89;93.68;100029.94;4957791;29;20035;-89
2023/01/21 10:15:38;;;;;;;4.97;3.07;;;;;;;4.75;92.03;100019.81;5030297;28;20046;-89
2023/01/21 10:18:43;;;;;;;5.75;2.90;;;;;;;4.68;87.94;100015.13;5043208;28;20280;-90
2023/01/21 10:21:52;;;;;;;5.65;3.40;;;;;;;4.77;86.36;100013.50;5032250;28;20092;-88
2023/01/21 10:24:27;;;;;;;8.80;3.13;;;;;;;4.85;87.34;100021.50;5031883;28;20160;-88
2023/01/21 10:27:18;;;;;;;5.95;3.20;;;;;;;4.85;85.78;100018.03;5032338;28;20045;-87
2023/01/21 10:30:08;;;;;;;8.18;2.70;;;;;;;4.76;75.64;100013.63;5027202;28;20050;-86
2023/01/21 10:33:27;;;;;;;11.70;2.80;;;;;;;4.77;76.43;100015.28;5032844;28;20101;-87
2023/01/21 10:36:46;;;;;;;6.47;2.83;;;;;;;4.78;78.09;100011.66;5028490;28;20058;-86
2023/01/21 10:39:50;;;;;;;4.97;2.60;;;;;;;4.94;79.42;100009.34;5034368;28;20034;-88
2023/01/21 10:42:38;;;;;;;7.05;3.15;;;;;;;4.80;81.57;100009.75;5023111;28;20117;-87
2023/01/21 10:45:20;;;;;;;9.20;3.55;;;;;;;4.81;86.30;100006.16;5033927;28;20034;-87
2023/01/21 10:48:18;;;;;;;8.57;3.78;;;;;;;4.73;87.75;100003.41;5033893;28;20038;-89
2023/01/21 10:50:55;;;;;;;7.93;3.17;;;;;;;4.88;87.56;100004.63;4973080;29;20112;-87
2023/01/21 10:56:13;;;;;;;9.80;2.87;;;;;;;4.78;85.95;100003.78;4705216;26;20047;-85
2023/01/21 10:58:43;;;;;;;12.52;3.47;;;;;;;5.26;93.17;99999.34;5007973;28;20050;-87
2023/01/21 11:01:41;;;;;;;5.85;3.03;;;;;;;5.20;86.24;99994.69;5003505;28;20085;-88
2023/01/21 11:04:23;;;;;;;8.73;2.80;;;;;;;5.12;80.18;99991.91;5009667;28;20101;-88
2023/01/21 11:07:10;;;;;;;4.78;3.00;;;;;;;4.93;79.67;99997.19;4975434;28;20030;-87
2023/01/21 11:09:45;;;;;;;14.07;3.33;;;;;;;4.83;80.28;99996.34;5008654;28;20069;-83
2023/01/21 11:12:16;;;;;;;6.57;3.42;;;;;;;4.78;81.31;99993.28;4993336;28;20062;-87
2023/01/21 11:15:11;;;;;;;6.93;3.58;;;;;;;4.75;82.07;99993.56;5009181;28;20084;-88
2023/01/21 11:17:40;;;;;;;7.32;3.33;;;;;;;4.78;83.70;99993.28;4990208;28;20508;-83
2023/01/21 11:20:15;;;;;;;11.45;3.58;;;;;;;4.76;84.26;99984.75;5005945;28;20407;-85
2023/01/21 11:22:44;;;;;;;6.93;3.60;;;;;;;4.86;83.45;99980.31;5005882;28;20038;-88
2023/01/21 11:25:54;;;;;;;5.70;3.17;;;;;;;4.83;86.05;99975.34;4984781;28;20045;-87
2023/01/21 11:28:28;;;;;;;8.25;3.05;;;;;;;5.02;83.97;99964.81;5002832;28;20034;-85
2023/01/21 11:31:03;;;;;;;5.93;3.15;;;;;;;5.05;81.93;99961.91;4983916;28;20089;-87
2023/01/21 11:33:29;;;;;;;6.10;2.95;;;;;;;5.04;81.83;99953.22;4981464;28;20038;-84
2023/01/21 11:35:57;;;;;;;6.65;2.90;;;;;;;5.04;80.93;99962.88;4999531;28;20128;-84
2023/01/21 11:38:25;;;;;;;9.80;2.90;;;;;;;5.04;80.09;99957.63;5002743;28;20042;-82
2023/01/21 11:41:25;;;;;;;6.40;2.60;;;;;;;5.11;78.75;99950.84;5006294;28;20030;-84
2023/01/21 11:44:21;;;;;;;4.90;2.90;;;;;;;5.11;79.75;99948.22;4991472;28;20050;-86
2023/01/21 11:46:52;;;;;;;5.68;3.03;;;;;;;5.20;77.31;99942.94;4912975;29;20048;-85
2023/01/21 11:49:26;;;;;;;6.10;2.72;;;;;;;5.17;75.73;99937.16;4894207;29;20067;-88
2023/01/21 11:52:19;;;;;;;6.07;2.80;;;;;;;5.31;76.91;99944.56;4911015;29;20068;-84
2023/01/21 11:54:51;;;;;;;8.63;2.93;;;;;;;5.34;75.52;99944.28;4893241;29;20044;-83
2023/01/21 11:57:34;;;;;;;5.85;2.58;;;;;;;5.33;78.52;99934.78;4955745;28;20065;-88
2023/01/21 12:00:10;;;;;;;7.15;3.10;;;;;;;5.19;77.37;99929.97;4987328;28;20081;-85
2023/01/21 12:02:44;;;;;;;11.27;2.92;;;;;;;5.12;79.26;99931.50;4999048;28;20038;-84
2023/01/21 12:05:29;;;;;;;12.33;3.23;;;;;;;5.21;78.89;99920.97;4991080;28;20101;-86
2023/01/21 12:07:57;;;;;;;4.55;2.70;;;;;;;5.14;78.18;99926.91;5006356;28;20117;-83
2023/01/21 12:10:25;;;;;;;7.00;2.45;;;;;;;5.14;78.64;99916.41;4990840;28;20038;-85
2023/01/21 12:13:21;;;;;;;5.57;2.97;;;;;;;5.17;79.56;99910.91;4992559;28;20054;-87